createdAt,value
2018-02-12T00:00:59.236Z,1.75
2018-02-12T00:02:09.195Z,1.75
2018-02-12T00:03:19.144Z,1.86
2018-02-12T00:04:29.087Z,1.82
2018-02-12T00:05:38.773Z,1.85
2018-02-12T00:06:48.717Z,1.81
2018-02-12T00:07:58.407Z,1.79
2018-02-12T00:09:08.344Z,1.89
2018-02-12T00:10:18.028Z,1.93
2018-02-12T00:11:27.713Z,1.95
2018-02-12T00:12:37.402Z,1.95
2018-02-12T00:13:47.345Z,1.95
2018-02-12T00:14:57.029Z,1.85
2018-02-12T00:16:06.709Z,2
2018-02-12T00:17:16.398Z,2.1
2018-02-12T00:18:26.340Z,2.01
2018-02-12T00:19:36.284Z,2.01
2018-02-12T00:20:45.971Z,1.88
2018-02-12T00:21:55.922Z,1.92
2018-02-12T00:23:05.859Z,2.01
2018-02-12T00:24:15.794Z,1.89
2018-02-12T00:25:24.993Z,2.01
2018-02-12T00:26:34.938Z,2.01
2018-02-12T00:27:44.916Z,1.92
2018-02-12T00:28:54.601Z,1.88
2018-02-12T00:30:04.553Z,2.01
2018-02-12T00:31:14.505Z,1.97
2018-02-12T00:32:24.449Z,1.93
2018-02-12T00:33:34.404Z,2.01
2018-02-12T00:34:44.089Z,2.01
2018-02-12T00:35:54.030Z,1.97
2018-02-12T00:37:03.972Z,1.89
2018-02-12T00:38:13.656Z,1.98
2018-02-12T00:39:23.597Z,1.95
2018-02-12T00:40:33.554Z,1.93
2018-02-12T00:41:43.240Z,1.92
2018-02-12T00:42:53.178Z,1.81
2018-02-12T00:44:03.118Z,1.81
2018-02-12T00:45:13.062Z,1.88
2018-02-12T00:46:22.993Z,1.81
2018-02-12T00:47:32.678Z,1.84
2018-02-12T00:48:42.365Z,1.79
2018-02-12T00:49:52.306Z,1.85
2018-02-12T00:51:02.255Z,1.82
2018-02-12T00:52:12.201Z,1.82
2018-02-12T00:53:21.935Z,1.75
2018-02-12T00:54:31.878Z,1.81
2018-02-12T00:55:41.811Z,1.74
2018-02-12T00:56:51.746Z,1.79
2018-02-12T00:58:01.735Z,1.75
2018-02-12T00:59:11.667Z,1.79
2018-02-12T01:00:21.368Z,1.7
2018-02-12T01:01:31.335Z,1.76
2018-02-12T01:02:41.024Z,1.67
2018-02-12T01:03:50.713Z,1.63
2018-02-12T01:05:00.666Z,1.68
2018-02-12T01:06:10.600Z,1.76
2018-02-12T01:07:20.536Z,1.66
2018-02-12T01:08:30.483Z,1.61
2018-02-12T01:09:40.430Z,1.66
2018-02-12T01:10:49.847Z,1.63
2018-02-12T01:11:59.525Z,1.58
2018-02-12T01:13:09.473Z,1.64
2018-02-12T01:14:19.424Z,1.61
2018-02-12T01:15:28.608Z,1.64
2018-02-12T01:16:38.594Z,1.64
2018-02-12T01:17:48.560Z,1.66
2018-02-12T01:18:58.498Z,1.63
2018-02-12T01:20:08.440Z,1.66
2018-02-12T01:21:18.373Z,1.64
2018-02-12T01:22:28.315Z,1.63
2018-02-12T01:23:37.994Z,1.67
2018-02-12T01:24:47.688Z,1.64
2018-02-12T01:25:57.625Z,1.67
2018-02-12T01:27:07.579Z,1.74
2018-02-12T01:28:17.525Z,1.75
2018-02-12T01:29:27.506Z,1.74
2018-02-12T01:30:37.460Z,1.74
2018-02-12T01:31:47.133Z,1.6
2018-02-12T01:32:57.088Z,1.63
2018-02-12T01:34:07.017Z,1.64
2018-02-12T01:35:16.974Z,1.6
2018-02-12T01:36:26.403Z,1.61
2018-02-12T01:37:36.086Z,1.68
2018-02-12T01:38:46.027Z,1.58
2018-02-12T01:39:55.708Z,1.61
2018-02-12T01:41:05.389Z,1.56
2018-02-12T01:42:15.340Z,1.53
2018-02-12T01:43:25.030Z,1.58
2018-02-12T01:44:34.968Z,1.57
2018-02-12T01:45:44.925Z,1.63
2018-02-12T01:46:54.868Z,1.6
2018-02-12T01:48:04.564Z,1.56
2018-02-12T01:49:14.508Z,1.61
2018-02-12T01:50:24.207Z,1.6
2018-02-12T01:51:34.139Z,1.52
2018-02-12T01:52:44.079Z,1.57
2018-02-12T01:53:54.018Z,1.66
2018-02-12T01:55:03.961Z,1.64
2018-02-12T01:56:13.389Z,1.68
2018-02-12T01:57:22.825Z,1.71
2018-02-12T01:58:32.762Z,1.76
2018-02-12T01:59:42.700Z,1.79
2018-02-12T02:00:52.379Z,1.78
2018-02-12T02:02:02.323Z,1.7
2018-02-12T02:03:12.269Z,1.64
2018-02-12T02:04:22.215Z,1.74
2018-02-12T02:05:32.142Z,1.64
2018-02-12T02:06:41.824Z,1.74
2018-02-12T02:07:51.759Z,1.61
2018-02-12T02:09:01.687Z,1.63
2018-02-12T02:10:11.648Z,1.67
2018-02-12T02:11:21.334Z,1.6
2018-02-12T02:12:31.280Z,1.56
2018-02-12T02:13:40.719Z,1.52
2018-02-12T02:14:50.662Z,1.5
2018-02-12T02:16:00.343Z,1.48
2018-02-12T02:17:10.322Z,1.45
2018-02-12T02:18:20.248Z,1.46
2018-02-12T02:19:30.188Z,1.49
2018-02-12T02:20:40.128Z,1.46
2018-02-12T02:21:49.816Z,1.43
2018-02-12T02:22:59.754Z,1.48
2018-02-12T02:24:09.437Z,1.5
2018-02-12T02:25:19.383Z,1.45
2018-02-12T02:26:29.325Z,1.52
2018-02-12T02:27:39.312Z,1.45
2018-02-12T02:28:49.244Z,1.38
2018-02-12T02:29:58.917Z,1.38
2018-02-12T02:31:08.360Z,1.4
2018-02-12T02:32:18.308Z,1.27
2018-02-12T02:33:28.264Z,1.28
2018-02-12T02:34:38.203Z,1.18
2018-02-12T02:35:47.890Z,1.14
2018-02-12T02:36:57.581Z,1.2
2018-02-12T02:38:07.023Z,1.1
2018-02-12T02:39:17.028Z,1.07
2018-02-12T02:40:26.712Z,1.06
2018-02-12T02:41:36.653Z,1.09
2018-02-12T02:42:46.595Z,1.06
2018-02-12T02:43:56.018Z,1.04
2018-02-12T02:45:05.964Z,1.02
2018-02-12T02:46:15.925Z,0.92
2018-02-12T02:47:25.615Z,0.95
2018-02-12T02:48:35.556Z,0.94
2018-02-12T02:49:45.499Z,1.06
2018-02-12T02:50:55.187Z,0.92
2018-02-12T02:52:04.893Z,0.88
2018-02-12T02:53:14.590Z,0.89
2018-02-12T02:54:24.564Z,0.94
2018-02-12T02:55:34.255Z,0.88
2018-02-12T02:56:43.945Z,0.86
2018-02-12T02:57:53.889Z,0.89
2018-02-12T02:59:03.575Z,0.84
2018-02-12T03:00:13.521Z,0.81
2018-02-12T03:01:23.463Z,0.78
2018-02-12T03:02:33.411Z,0.81
2018-02-12T03:03:43.364Z,0.84
2018-02-12T03:04:53.313Z,0.81
2018-02-12T03:06:03.268Z,0.78
2018-02-12T03:07:13.203Z,0.73
2018-02-12T03:08:23.297Z,0.76
2018-02-12T03:09:32.986Z,0.85
2018-02-12T03:10:42.921Z,0.64
2018-02-12T03:11:52.875Z,0.67
2018-02-12T03:13:02.557Z,0.68
2018-02-12T03:14:12.498Z,0.76
2018-02-12T03:15:22.431Z,0.71
2018-02-12T03:16:32.361Z,0.74
2018-02-12T03:17:42.294Z,0.76
2018-02-12T03:18:51.976Z,0.7
2018-02-12T03:20:01.910Z,0.73
2018-02-12T03:21:11.856Z,0.73
2018-02-12T03:22:21.537Z,0.76
2018-02-12T03:23:30.964Z,0.71
2018-02-12T03:24:40.916Z,0.68
2018-02-12T03:25:50.856Z,0.63
2018-02-12T03:27:00.541Z,0.68
2018-02-12T03:28:10.479Z,0.7
2018-02-12T03:29:20.413Z,0.7
2018-02-12T03:30:30.107Z,0.64
2018-02-12T03:31:40.067Z,0.76
2018-02-12T03:32:50.212Z,0.76
2018-02-12T03:34:00.187Z,0.73
2018-02-12T03:35:10.142Z,0.82
2018-02-12T03:36:19.835Z,0.81
2018-02-12T03:37:29.525Z,0.74
2018-02-12T03:38:39.658Z,0.86
2018-02-12T03:39:49.088Z,0.68
2018-02-12T03:40:58.511Z,0.82
2018-02-12T03:42:08.506Z,0.82
2018-02-12T03:43:18.185Z,0.81
2018-02-12T03:44:28.114Z,0.84
2018-02-12T03:45:38.066Z,0.78
2018-02-12T03:46:47.746Z,0.82
2018-02-12T03:47:57.181Z,0.86
2018-02-12T03:49:07.125Z,0.89
2018-02-12T03:50:17.085Z,0.84
2018-02-12T03:51:26.769Z,0.86
2018-02-12T03:52:36.712Z,0.76
2018-02-12T03:53:46.410Z,0.82
2018-02-12T03:54:56.339Z,0.82
2018-02-12T03:56:06.021Z,0.84
2018-02-12T03:57:15.716Z,0.76
2018-02-12T03:58:25.664Z,0.81
2018-02-12T03:59:35.613Z,0.81
2018-02-12T04:00:45.362Z,0.81
2018-02-12T04:01:55.344Z,0.95
2018-02-12T04:03:05.289Z,0.92
2018-02-12T04:04:14.718Z,0.91
2018-02-12T04:05:24.656Z,1.03
2018-02-12T04:06:34.337Z,0.94
2018-02-12T04:07:44.078Z,0.89
2018-02-12T04:08:53.760Z,1
2018-02-12T04:10:03.447Z,0.99
2018-02-12T04:11:13.393Z,0.92
2018-02-12T04:12:23.087Z,1.02
2018-02-12T04:13:33.021Z,0.91
2018-02-12T04:14:42.971Z,1.06
2018-02-12T04:15:52.914Z,1
2018-02-12T04:17:02.357Z,1.06
2018-02-12T04:18:12.050Z,1.12
2018-02-12T04:19:21.992Z,1.06
2018-02-12T04:20:31.426Z,1.09
2018-02-12T04:21:41.371Z,1.12
2018-02-12T04:22:51.308Z,1.13
2018-02-12T04:24:01.256Z,1.06
2018-02-12T04:25:11.200Z,1.13
2018-02-12T04:26:21.148Z,1.22
2018-02-12T04:27:31.089Z,1.24
2018-02-12T04:28:40.767Z,1.25
2018-02-12T04:29:50.708Z,1.24
2018-02-12T04:31:00.661Z,1.27
2018-02-12T04:32:10.595Z,1.24
2018-02-12T04:33:20.532Z,1.21
2018-02-12T04:34:30.472Z,1.14
2018-02-12T04:35:40.147Z,1.18
2018-02-12T04:36:50.094Z,1.2
2018-02-12T04:37:59.764Z,1.24
2018-02-12T04:39:09.449Z,1.22
2018-02-12T04:40:19.407Z,1.12
2018-02-12T04:41:29.357Z,1.12
2018-02-12T04:42:39.297Z,1.18
2018-02-12T04:43:49.240Z,1.16
2018-02-12T04:44:59.180Z,1.14
2018-02-12T04:46:09.120Z,1.14
2018-02-12T04:47:18.804Z,1.2
2018-02-12T04:48:28.742Z,1.16
2018-02-12T04:49:38.733Z,1.16
2018-02-12T04:50:48.690Z,1.18
2018-02-12T04:51:58.641Z,1.13
2018-02-12T04:53:08.585Z,1.14
2018-02-12T04:54:18.523Z,1.24
2018-02-12T04:55:28.202Z,1.16
2018-02-12T04:56:38.141Z,1.21
2018-02-12T04:57:48.094Z,1.24
2018-02-12T04:58:58.030Z,1.2
2018-02-12T05:00:07.963Z,1.18
2018-02-12T05:01:17.901Z,1.25
2018-02-12T05:02:27.857Z,1.24
2018-02-12T05:03:37.802Z,1.25
2018-02-12T05:04:47.753Z,1.27
2018-02-12T05:05:57.768Z,1.36
2018-02-12T05:07:07.773Z,1.32
2018-02-12T05:08:17.717Z,1.45
2018-02-12T05:09:27.656Z,1.38
2018-02-12T05:10:37.602Z,1.48
2018-02-12T05:11:47.546Z,1.49
2018-02-12T05:12:57.228Z,1.48
2018-02-12T05:14:06.656Z,1.43
2018-02-12T05:15:16.590Z,1.43
2018-02-12T05:16:26.528Z,1.56
2018-02-12T05:17:36.213Z,1.45
2018-02-12T05:18:46.149Z,1.49
2018-02-12T05:19:55.583Z,1.48
2018-02-12T05:21:05.539Z,1.43
2018-02-12T05:22:15.221Z,1.49
2018-02-12T05:23:25.163Z,1.49
2018-02-12T05:24:35.110Z,1.56
2018-02-12T05:25:45.046Z,1.53
2018-02-12T05:26:54.730Z,1.56
2018-02-12T05:28:03.653Z,1.5
2018-02-12T05:29:13.606Z,1.56
2018-02-12T05:30:23.302Z,1.5
2018-02-12T05:31:32.995Z,1.52
2018-02-12T05:32:42.939Z,1.46
2018-02-12T05:33:52.887Z,1.56
2018-02-12T05:35:02.582Z,1.56
2018-02-12T05:36:12.524Z,1.58
2018-02-12T05:37:22.472Z,1.5
2018-02-12T05:38:32.154Z,1.48
2018-02-12T05:39:42.090Z,1.46
2018-02-12T05:40:52.031Z,1.45
2018-02-12T05:42:01.977Z,1.48
2018-02-12T05:43:11.417Z,1.45
2018-02-12T05:44:21.378Z,1.46
2018-02-12T05:45:31.322Z,1.45
2018-02-12T05:46:41.264Z,1.46
2018-02-12T05:47:51.206Z,1.45
2018-02-12T05:49:01.142Z,1.57
2018-02-12T05:50:10.829Z,1.43
2018-02-12T05:51:20.524Z,1.57
2018-02-12T05:52:29.970Z,1.42
2018-02-12T05:53:39.909Z,1.43
2018-02-12T05:54:49.343Z,1.4
2018-02-12T05:55:59.283Z,1.43
2018-02-12T05:57:08.994Z,1.46
2018-02-12T05:58:18.961Z,1.57
2018-02-12T05:59:28.688Z,1.45
2018-02-12T06:00:38.112Z,1.45
2018-02-12T06:01:47.799Z,1.39
2018-02-12T06:02:57.775Z,1.48
2018-02-12T06:04:07.714Z,1.46
2018-02-12T06:05:17.657Z,1.43
2018-02-12T06:06:27.614Z,1.52
2018-02-12T06:07:37.559Z,1.56
2018-02-12T06:08:47.502Z,1.57
2018-02-12T06:09:57.451Z,1.56
2018-02-12T06:11:07.427Z,1.56
2018-02-12T06:12:17.379Z,1.56
2018-02-12T06:13:27.316Z,1.57
2018-02-12T06:14:37.266Z,1.63
2018-02-12T06:15:47.200Z,1.57
2018-02-12T06:16:56.391Z,1.56
2018-02-12T06:18:06.416Z,1.63
2018-02-12T06:19:16.366Z,1.63
2018-02-12T06:20:26.049Z,1.61
2018-02-12T06:21:35.997Z,1.6
2018-02-12T06:22:45.946Z,1.63
2018-02-12T06:23:55.384Z,1.74
2018-02-12T06:25:05.084Z,1.71
2018-02-12T06:26:14.770Z,1.75
2018-02-12T06:27:24.725Z,1.74
2018-02-12T06:28:34.677Z,1.74
2018-02-12T06:29:44.610Z,1.82
2018-02-12T06:30:54.366Z,1.82
2018-02-12T06:32:04.087Z,1.79
2018-02-12T06:33:13.785Z,1.74
2018-02-12T06:34:23.737Z,1.75
2018-02-12T06:35:33.430Z,1.82
2018-02-12T06:36:43.127Z,1.79
2018-02-12T06:37:53.065Z,1.78
2018-02-12T06:39:02.253Z,1.79
2018-02-12T06:40:12.210Z,1.75
2018-02-12T06:41:22.166Z,1.78
2018-02-12T06:42:32.121Z,1.74
2018-02-12T06:43:42.069Z,1.71
2018-02-12T06:44:52.013Z,1.75
2018-02-12T06:46:01.950Z,1.7
2018-02-12T06:47:11.913Z,1.74
2018-02-12T06:48:21.655Z,1.58
2018-02-12T06:49:31.617Z,1.63
2018-02-12T06:50:41.569Z,1.6
2018-02-12T06:51:51.517Z,1.6
2018-02-12T06:53:01.489Z,1.57
2018-02-12T06:54:11.447Z,1.64
2018-02-12T06:55:20.898Z,1.63
2018-02-12T06:56:30.853Z,1.56
2018-02-12T06:57:40.809Z,1.66
2018-02-12T06:58:50.512Z,1.53
2018-02-12T07:00:00.196Z,1.6
2018-02-12T07:01:09.651Z,1.57
2018-02-12T07:02:19.600Z,1.5
2018-02-12T07:03:29.284Z,1.48
2018-02-12T07:04:38.987Z,1.56
2018-02-12T07:05:48.962Z,1.45
2018-02-12T07:06:58.921Z,1.5
2018-02-12T07:08:08.889Z,1.49
2018-02-12T07:09:18.583Z,1.57
2018-02-12T07:10:28.482Z,1.56
2018-02-12T07:11:38.213Z,1.53
2018-02-12T07:12:47.921Z,1.56
2018-02-12T07:13:58.192Z,1.52
2018-02-12T07:15:08.161Z,1.58
2018-02-12T07:16:18.121Z,1.49
2018-02-12T07:17:27.811Z,1.63
2018-02-12T07:18:37.767Z,1.64
2018-02-12T07:19:47.769Z,1.6
2018-02-12T07:20:57.480Z,1.64
2018-02-12T07:22:06.656Z,1.63
2018-02-12T07:23:16.602Z,1.71
2018-02-12T07:24:26.589Z,1.74
2018-02-12T07:25:36.531Z,1.74
2018-02-12T07:26:46.228Z,1.76
2018-02-12T07:27:56.211Z,1.82
2018-02-12T07:29:06.184Z,1.88
2018-02-12T07:30:16.131Z,1.86
2018-02-12T07:31:25.831Z,1.93
2018-02-12T07:32:35.781Z,1.85
2018-02-12T07:33:45.749Z,2.01
2018-02-12T07:34:55.709Z,1.92
2018-02-12T07:36:05.664Z,1.97
2018-02-12T07:37:15.114Z,1.92
2018-02-12T07:38:25.085Z,2.03
2018-02-12T07:39:35.041Z,1.89
2018-02-12T07:40:44.991Z,2.05
2018-02-12T07:41:54.959Z,2.04
2018-02-12T07:43:04.662Z,2.05
2018-02-12T07:44:14.624Z,2.03
2018-02-12T07:45:24.330Z,2.04
2018-02-12T07:46:34.058Z,2.15
2018-02-12T07:47:44.025Z,2.21
2018-02-12T07:48:54.008Z,2.16
2018-02-12T07:50:03.701Z,2.21
2018-02-12T07:51:13.660Z,2.12
2018-02-12T07:52:23.358Z,2.19
2018-02-12T07:53:33.331Z,2.26
2018-02-12T07:54:43.034Z,2.22
2018-02-12T07:55:52.999Z,2.22
2018-02-12T07:57:02.983Z,2.28
2018-02-12T07:58:12.694Z,2.21
2018-02-12T07:59:22.644Z,2.32
2018-02-12T08:00:32.616Z,2.32
2018-02-12T08:01:42.633Z,2.26
2018-02-12T08:02:52.341Z,2.26
2018-02-12T08:04:02.065Z,2.22
2018-02-12T08:05:11.769Z,2.3
2018-02-12T08:06:21.480Z,2.28
2018-02-12T08:07:30.926Z,2.26
2018-02-12T08:08:40.384Z,2.28
2018-02-12T08:09:50.358Z,2.25
2018-02-12T08:11:00.311Z,2.3
2018-02-12T08:12:10.396Z,2.33
2018-02-12T08:13:20.438Z,2.32
2018-02-12T08:14:30.392Z,2.23
2018-02-12T08:15:40.102Z,2.26
2018-02-12T08:16:49.805Z,2.26
2018-02-12T08:17:59.501Z,2.36
2018-02-12T08:19:09.222Z,2.33
2018-02-12T08:20:19.241Z,2.32
2018-02-12T08:21:28.954Z,2.37
2018-02-12T08:22:38.659Z,2.28
2018-02-12T08:23:48.383Z,2.33
2018-02-12T08:24:58.083Z,2.25
2018-02-12T08:26:07.793Z,2.26
2018-02-12T08:27:17.760Z,2.37
2018-02-12T08:28:27.460Z,2.4
2018-02-12T08:29:37.154Z,2.41
2018-02-12T08:30:47.108Z,2.3
2018-02-12T08:31:56.651Z,2.36
2018-02-12T08:33:06.366Z,2.28
2018-02-12T08:34:16.316Z,2.36
2018-02-12T08:35:26.053Z,2.28
2018-02-12T08:36:35.829Z,2.33
2018-02-12T08:37:45.799Z,2.39
2018-02-12T08:38:55.786Z,2.41
2018-02-12T08:40:05.517Z,2.39
2018-02-12T08:41:15.213Z,2.41
2018-02-12T08:42:25.172Z,2.43
2018-02-12T08:43:35.129Z,2.41
2018-02-12T08:44:45.085Z,2.4
2018-02-12T08:45:55.072Z,2.4
2018-02-12T08:47:05.057Z,2.43
2018-02-12T08:48:15.049Z,2.4
2018-02-12T08:49:24.797Z,2.46
2018-02-12T08:50:34.751Z,2.41
2018-02-12T08:51:44.961Z,2.44
2018-02-12T08:52:54.950Z,2.41
2018-02-12T08:54:04.938Z,2.5
2018-02-12T08:55:14.955Z,2.51
2018-02-12T08:56:24.953Z,2.52
2018-02-12T08:57:34.955Z,2.52
2018-02-12T08:58:44.394Z,2.44
2018-02-12T08:59:54.350Z,2.5
2018-02-12T09:01:04.330Z,2.5
2018-02-12T09:02:14.365Z,2.4
2018-02-12T09:03:24.334Z,2.5
2018-02-12T09:04:34.287Z,2.47
2018-02-12T09:05:44.231Z,2.47
2018-02-12T09:06:53.932Z,2.44
2018-02-12T09:08:03.895Z,2.52
2018-02-12T09:09:13.332Z,2.55
2018-02-12T09:10:23.295Z,2.57
2018-02-12T09:11:33.243Z,2.44
2018-02-12T09:12:42.945Z,2.58
2018-02-12T09:13:52.682Z,2.58
2018-02-12T09:15:02.437Z,2.58
2018-02-12T09:16:12.135Z,2.68
2018-02-12T09:17:22.110Z,2.65
2018-02-12T09:18:32.060Z,2.76
2018-02-12T09:19:42.023Z,2.75
2018-02-12T09:20:51.726Z,2.7
2018-02-12T09:22:01.498Z,2.72
2018-02-12T09:23:11.460Z,2.85
2018-02-12T09:24:21.157Z,2.9
2018-02-12T09:25:31.372Z,2.76
2018-02-12T09:26:41.385Z,2.88
2018-02-12T09:27:51.377Z,2.91
2018-02-12T09:29:01.333Z,2.93
2018-02-12T09:30:11.287Z,2.97
2018-02-12T09:31:21.252Z,2.95
2018-02-12T09:32:31.176Z,2.97
2018-02-12T09:33:41.155Z,3.05
2018-02-12T09:34:50.847Z,3.01
2018-02-12T09:36:00.585Z,3.09
2018-02-12T09:37:10.550Z,3.03
2018-02-12T09:38:20.274Z,3.15
2018-02-12T09:39:30.222Z,3.08
2018-02-12T09:40:39.911Z,3.09
2018-02-12T09:41:49.904Z,3.05
2018-02-12T09:42:59.617Z,3.12
2018-02-12T09:44:09.360Z,3.12
2018-02-12T09:45:19.336Z,3.11
2018-02-12T09:46:29.041Z,3.11
2018-02-12T09:47:39.320Z,3.24
2018-02-12T09:48:49.264Z,3.05
2018-02-12T09:49:59.232Z,3.09
2018-02-12T09:51:09.211Z,3.22
2018-02-12T09:52:19.190Z,3.18
2018-02-12T09:53:28.651Z,3.18
2018-02-12T09:54:38.633Z,3.33
2018-02-12T09:55:48.620Z,3.36
2018-02-12T09:56:58.392Z,3.49
2018-02-12T09:58:08.105Z,3.5
2018-02-12T09:59:18.076Z,3.53
2018-02-12T10:00:27.782Z,3.59
2018-02-12T10:01:37.232Z,3.74
2018-02-12T10:02:47.174Z,3.67
2018-02-12T10:03:57.150Z,3.73
2018-02-12T10:05:06.855Z,3.71
2018-02-12T10:06:16.850Z,3.73
2018-02-12T10:07:26.620Z,3.81
2018-02-12T10:08:36.102Z,3.7
2018-02-12T10:09:46.010Z,3.85
2018-02-12T10:10:55.821Z,3.82
2018-02-12T10:12:05.955Z,3.81
2018-02-12T10:13:15.913Z,3.96
2018-02-12T10:14:25.643Z,3.91
2018-02-12T10:15:35.600Z,3.89
2018-02-12T10:16:45.853Z,3.94
2018-02-12T10:17:56.069Z,4.03
2018-02-12T10:19:06.072Z,4.18
2018-02-12T10:20:16.035Z,4.12
2018-02-12T10:21:25.735Z,4.2
2018-02-12T10:22:35.696Z,4.13
2018-02-12T10:23:45.645Z,4.04
2018-02-12T10:24:55.609Z,4.18
2018-02-12T10:26:05.578Z,4.21
2018-02-12T10:27:15.295Z,4.2
2018-02-12T10:28:25.241Z,4.14
2018-02-12T10:29:35.201Z,4.16
2018-02-12T10:30:45.167Z,4.06
2018-02-12T10:31:54.873Z,4.27
2018-02-12T10:33:04.834Z,4.38
2018-02-12T10:34:14.808Z,4.38
2018-02-12T10:35:24.777Z,4.34
2018-02-12T10:36:34.786Z,4.34
2018-02-12T10:37:44.498Z,4.28
2018-02-12T10:38:54.462Z,4.4
2018-02-12T10:40:04.416Z,4.32
2018-02-12T10:41:14.409Z,4.45
2018-02-12T10:42:24.146Z,4.42
2018-02-12T10:43:34.108Z,4.38
2018-02-12T10:44:44.081Z,4.45
2018-02-12T10:45:54.043Z,4.36
2018-02-12T10:47:04.071Z,4.43
2018-02-12T10:48:14.083Z,4.43
2018-02-12T10:49:23.820Z,4.5
2018-02-12T10:50:33.793Z,4.52
2018-02-12T10:51:43.782Z,4.6
2018-02-12T10:52:53.739Z,4.67
2018-02-12T10:54:03.434Z,4.66
2018-02-12T10:55:13.401Z,4.68
2018-02-12T10:56:23.351Z,4.68
2018-02-12T10:57:32.543Z,4.61
2018-02-12T10:58:42.511Z,4.68
2018-02-12T10:59:52.482Z,4.7
2018-02-12T11:01:02.477Z,4.75
2018-02-12T11:02:12.487Z,4.63
2018-02-12T11:03:22.469Z,4.64
2018-02-12T11:04:32.165Z,4.63
2018-02-12T11:05:42.117Z,4.6
2018-02-12T11:06:52.076Z,4.57
2018-02-12T11:08:02.078Z,4.52
2018-02-12T11:09:12.051Z,4.53
2018-02-12T11:10:22.038Z,4.48
2018-02-12T11:11:32.223Z,4.48
2018-02-12T11:12:42.175Z,4.5
2018-02-12T11:13:51.619Z,4.45
2018-02-12T11:15:01.383Z,4.43
2018-02-12T11:16:11.371Z,4.49
2018-02-12T11:17:21.388Z,4.49
2018-02-12T11:18:31.112Z,4.5
2018-02-12T11:19:40.829Z,4.6
2018-02-12T11:20:50.537Z,4.7
2018-02-12T11:22:00.463Z,4.86
2018-02-12T11:23:10.182Z,4.95
2018-02-12T11:24:20.177Z,5.08
2018-02-12T11:25:29.898Z,5.13
2018-02-12T11:26:39.600Z,5.19
2018-02-12T11:27:49.558Z,5.19
2018-02-12T11:28:59.541Z,5.18
2018-02-12T11:30:09.513Z,5.22
2018-02-12T11:31:19.513Z,5.19
2018-02-12T11:32:29.473Z,5.31
2018-02-12T11:33:39.430Z,5.36
2018-02-12T11:34:49.150Z,5.28
2018-02-12T11:35:58.641Z,5.22
2018-02-12T11:37:08.600Z,5.13
2018-02-12T11:38:18.336Z,5.12
2018-02-12T11:39:28.322Z,5
2018-02-12T11:40:38.560Z,5.02
2018-02-12T11:41:48.287Z,4.95
2018-02-12T11:42:58.268Z,4.87
2018-02-12T11:44:08.240Z,4.64
2018-02-12T11:45:18.219Z,4.63
2018-02-12T11:46:27.943Z,4.6
2018-02-12T11:47:37.679Z,4.6
2018-02-12T11:48:47.640Z,4.53
2018-02-12T11:49:57.605Z,4.53
2018-02-12T11:51:07.314Z,4.6
2018-02-12T11:52:17.051Z,4.61
2018-02-12T11:53:27.017Z,4.67
2018-02-12T11:54:36.990Z,4.68
2018-02-12T11:55:46.719Z,4.64
2018-02-12T11:56:56.456Z,4.68
2018-02-12T11:58:06.434Z,4.6
2018-02-12T11:59:16.417Z,4.58
2018-02-12T12:00:26.666Z,4.53
2018-02-12T12:01:36.433Z,4.6
2018-02-12T12:02:46.386Z,4.63
2018-02-12T12:03:56.089Z,4.7
2018-02-12T12:05:05.801Z,4.7
2018-02-12T12:06:15.245Z,4.78
2018-02-12T12:07:25.201Z,4.7
2018-02-12T12:08:35.171Z,4.68
2018-02-12T12:09:45.130Z,4.78
2018-02-12T12:10:54.840Z,4.79
2018-02-12T12:12:04.805Z,4.95
2018-02-12T12:13:14.772Z,5.01
2018-02-12T12:14:24.771Z,5.25
2018-02-12T12:15:34.754Z,5.61
2018-02-12T12:16:44.745Z,5.65
2018-02-12T12:17:54.710Z,5.72
2018-02-12T12:19:03.923Z,5.77
2018-02-12T12:20:13.903Z,5.8
2018-02-12T12:21:23.617Z,5.87
2018-02-12T12:22:33.582Z,5.79
2018-02-12T12:23:43.562Z,5.73
2018-02-12T12:24:53.537Z,5.72
2018-02-12T12:26:03.498Z,5.56
2018-02-12T12:27:12.984Z,5.55
2018-02-12T12:28:22.430Z,5.58
2018-02-12T12:29:32.182Z,5.61
2018-02-12T12:30:41.882Z,5.51
2018-02-12T12:31:51.846Z,5.55
2018-02-12T12:33:01.914Z,5.67
2018-02-12T12:34:11.626Z,5.84
2018-02-12T12:35:21.377Z,6.01
2018-02-12T12:36:31.170Z,6.16
2018-02-12T12:37:40.938Z,6.38
2018-02-12T12:38:50.956Z,6.54
2018-02-12T12:40:00.937Z,6.8
2018-02-12T12:41:10.948Z,6.71
2018-02-12T12:42:20.943Z,6.75
2018-02-12T12:43:30.947Z,6.52
2018-02-12T12:44:40.936Z,6.38
2018-02-12T12:45:50.890Z,6.41
2018-02-12T12:47:00.894Z,6.56
2018-02-12T12:48:10.869Z,6.72
2018-02-12T12:49:20.586Z,6.65
2018-02-12T12:50:30.538Z,6.83
2018-02-12T12:51:40.537Z,7.03
2018-02-12T12:52:50.508Z,7.32
2018-02-12T12:54:00.490Z,7.31
2018-02-12T12:55:10.477Z,7.19
2018-02-12T12:56:20.466Z,7.37
2018-02-12T12:57:29.913Z,7.37
2018-02-12T12:58:39.901Z,7.44
2018-02-12T12:59:49.883Z,7.66
2018-02-12T13:00:59.666Z,7.41
2018-02-12T13:02:09.395Z,7.32
2018-02-12T13:03:19.343Z,7.36
2018-02-12T13:04:29.304Z,7.22
2018-02-12T13:05:39.283Z,7.04
2018-02-12T13:06:49.248Z,6.92
2018-02-12T13:07:59.206Z,7.01
2018-02-12T13:09:09.158Z,7.1
2018-02-12T13:10:19.107Z,7.21
2018-02-12T13:11:29.092Z,6.95
2018-02-12T13:12:39.056Z,6.83
2018-02-12T13:13:48.760Z,6.6
2018-02-12T13:14:58.707Z,6.57
2018-02-12T13:16:08.717Z,6.65
2018-02-12T13:17:18.684Z,6.5
2018-02-12T13:18:28.647Z,6.6
2018-02-12T13:19:38.611Z,6.52
2018-02-12T13:20:48.312Z,6.36
2018-02-12T13:21:58.015Z,6.38
2018-02-12T13:23:08.000Z,6.35
2018-02-12T13:24:17.702Z,6.32
2018-02-12T13:25:27.961Z,6.29
2018-02-12T13:26:37.937Z,6.19
2018-02-12T13:27:47.909Z,6.17
2018-02-12T13:28:57.870Z,6.1
2018-02-12T13:30:07.567Z,6.05
2018-02-12T13:31:17.559Z,5.95
2018-02-12T13:32:27.256Z,5.95
2018-02-12T13:33:37.285Z,5.9
2018-02-12T13:34:47.308Z,5.73
2018-02-12T13:35:57.247Z,5.83
2018-02-12T13:37:07.207Z,5.81
2018-02-12T13:38:16.907Z,5.65
2018-02-12T13:39:26.604Z,5.67
2018-02-12T13:40:36.575Z,5.59
2018-02-12T13:41:46.281Z,5.59
2018-02-12T13:42:56.246Z,5.59
2018-02-12T13:44:06.197Z,5.51
2018-02-12T13:45:15.918Z,5.46
2018-02-12T13:46:25.887Z,5.44
2018-02-12T13:47:35.587Z,5.56
2018-02-12T13:48:45.560Z,5.58
2018-02-12T13:49:55.559Z,5.67
2018-02-12T13:51:05.520Z,5.84
2018-02-12T13:52:15.481Z,5.88
2018-02-12T13:53:25.197Z,6.1
2018-02-12T13:54:35.162Z,6.25
2018-02-12T13:55:45.177Z,6.36
2018-02-12T13:56:54.878Z,6.17
2018-02-12T13:58:04.844Z,6.06
2018-02-12T13:59:14.815Z,5.97
2018-02-12T14:00:24.784Z,5.91
2018-02-12T14:01:34.756Z,5.73
2018-02-12T14:02:44.733Z,5.72
2018-02-12T14:03:54.698Z,5.67
2018-02-12T14:05:04.691Z,5.56
2018-02-12T14:06:14.399Z,5.47
2018-02-12T14:07:24.361Z,5.44
2018-02-12T14:08:34.330Z,5.54
2018-02-12T14:09:44.030Z,5.61
2018-02-12T14:10:53.732Z,5.56
2018-02-12T14:12:03.428Z,5.69
2018-02-12T14:13:13.395Z,5.7
2018-02-12T14:14:23.354Z,5.73
2018-02-12T14:15:33.072Z,5.72
2018-02-12T14:16:43.035Z,5.59
2018-02-12T14:17:52.994Z,5.67
2018-02-12T14:19:02.955Z,5.56
2018-02-12T14:20:12.914Z,5.58
2018-02-12T14:21:22.989Z,5.56
2018-02-12T14:22:32.680Z,5.55
2018-02-12T14:23:42.632Z,5.65
2018-02-12T14:24:52.589Z,5.65
2018-02-12T14:26:02.292Z,5.62
2018-02-12T14:27:11.996Z,5.55
2018-02-12T14:28:21.960Z,5.58
2018-02-12T14:29:31.910Z,5.54
2018-02-12T14:30:41.874Z,5.52
2018-02-12T14:31:51.876Z,5.41
2018-02-12T14:33:01.825Z,5.26
2018-02-12T14:34:11.773Z,5.26
2018-02-12T14:35:21.467Z,5.38
2018-02-12T14:36:31.426Z,5.47
2018-02-12T14:37:41.383Z,5.47
2018-02-12T14:38:51.088Z,5.58
2018-02-12T14:40:00.799Z,5.73
2018-02-12T14:41:10.760Z,5.72
2018-02-12T14:42:20.728Z,5.77
2018-02-12T14:43:30.426Z,5.74
2018-02-12T14:44:40.386Z,5.76
2018-02-12T14:45:50.343Z,5.87
2018-02-12T14:47:00.302Z,5.7
2018-02-12T14:48:10.289Z,5.67
2018-02-12T14:49:20.231Z,5.79
2018-02-12T14:50:30.032Z,5.69
2018-02-12T14:51:40.008Z,5.61
2018-02-12T14:52:49.959Z,5.64
2018-02-12T14:53:59.658Z,5.58
2018-02-12T14:55:09.344Z,5.61
2018-02-12T14:56:19.104Z,5.59
2018-02-12T14:57:29.132Z,5.67
2018-02-12T14:58:39.088Z,5.69
2018-02-12T14:59:49.053Z,5.64
2018-02-12T15:00:59.029Z,5.72
2018-02-12T15:02:09.015Z,5.64
2018-02-12T15:03:18.986Z,5.73
2018-02-12T15:04:28.691Z,5.8
2018-02-12T15:05:38.386Z,5.72
2018-02-12T15:06:48.102Z,5.73
2018-02-12T15:07:57.801Z,5.74
2018-02-12T15:09:07.512Z,5.92
2018-02-12T15:10:17.234Z,5.95
2018-02-12T15:11:27.205Z,6.05
2018-02-12T15:12:36.894Z,5.92
2018-02-12T15:13:46.675Z,5.74
2018-02-12T15:14:56.635Z,5.72
2018-02-12T15:16:06.591Z,5.8
2018-02-12T15:17:16.554Z,5.77
2018-02-12T15:18:26.260Z,5.87
2018-02-12T15:19:36.233Z,5.91
2018-02-12T15:20:46.304Z,5.8
2018-02-12T15:21:56.254Z,5.84
2018-02-12T15:23:06.232Z,5.74
2018-02-12T15:24:15.938Z,5.74
2018-02-12T15:25:25.651Z,5.67
2018-02-12T15:26:35.612Z,5.64
2018-02-12T15:27:45.583Z,5.7
2018-02-12T15:28:55.548Z,5.7
2018-02-12T15:30:05.512Z,5.58
2018-02-12T15:31:15.482Z,5.41
2018-02-12T15:32:25.448Z,5.61
2018-02-12T15:33:34.924Z,5.61